Alt de Parq Ecuestre, Puerto Rico
Current Conditions -  °F | °C
As of 1:56 AM on Tuesday 21 Oct 2014 (Local Time) from TJSJ Reporting Station
Few Clouds Few Clouds  
Wind Chill: 79°   Ceiling: Unl
Heat Index: 82°   Visibility: 10mi
Dew Point: 73°   Wind: 0mph
Humidity: 82%   Direction: NA
Pressure: 29.92"   Gusts: NA
Location:  18.4083°N, 65.981°W
Report Text: TJSJ 210556Z 00000KT 10SM FEW044 26/23 A2992 RMK AO2 SLP132 60002 T02610228 10278 20261 58016
Loading
Personal Weather Stations






























Interactive Weather Map New forecast layout! Learn more

10-Day Weather Forecast

Advertisements
Track Severe Weather on mobile